createdAt,value
2023-07-09T00:01:22.988Z,23.10
2023-07-09T00:03:52.499Z,23.10
2023-07-09T00:06:22.290Z,23.00
2023-07-09T00:08:50.075Z,23.00
2023-07-09T00:11:17.478Z,23.00
2023-07-09T00:13:44.627Z,23.10
2023-07-09T00:16:24.668Z,23.00
2023-07-09T00:18:51.889Z,23.00
2023-07-09T00:21:21.169Z,23.00
2023-07-09T00:23:49.872Z,22.90
2023-07-09T00:26:17.970Z,22.90
2023-07-09T00:28:44.816Z,23.00
2023-07-09T00:31:17.101Z,22.90
2023-07-09T00:33:44.650Z,22.90
2023-07-09T00:36:27.677Z,22.80
2023-07-09T00:38:54.290Z,22.80
2023-07-09T00:41:23.110Z,22.70
2023-07-09T00:43:52.269Z,22.70
2023-07-09T00:46:23.546Z,22.70
2023-07-09T00:49:10.276Z,22.60
2023-07-09T00:51:43.453Z,22.70
2023-07-09T00:54:31.352Z,22.70
2023-07-09T00:57:07.156Z,22.70
2023-07-09T00:59:34.178Z,22.70
2023-07-09T01:02:01.303Z,22.60
2023-07-09T01:04:29.347Z,22.50
2023-07-09T01:06:57.759Z,22.50
2023-07-09T01:09:25.790Z,22.50
2023-07-09T01:11:58.782Z,22.50
2023-07-09T01:14:27.504Z,22.60
2023-07-09T01:16:59.741Z,22.60
2023-07-09T01:19:29.254Z,22.60
2023-07-09T01:21:57.248Z,22.60
2023-07-09T01:24:48.679Z,22.70
2023-07-09T01:27:15.710Z,22.70
2023-07-09T01:29:45.290Z,22.70
2023-07-09T01:32:15.022Z,22.70
2023-07-09T01:34:42.078Z,22.70
2023-07-09T01:37:09.128Z,22.70
2023-07-09T01:39:36.987Z,22.70
2023-07-09T01:42:03.869Z,22.70
2023-07-09T01:44:30.535Z,22.60
2023-07-09T01:46:57.157Z,22.60
2023-07-09T01:49:23.815Z,22.50
2023-07-09T01:51:51.451Z,22.40
2023-07-09T01:54:18.061Z,22.40
2023-07-09T01:56:44.809Z,22.40
2023-07-09T01:59:12.080Z,22.40
2023-07-09T02:01:39.362Z,22.30
2023-07-09T02:04:06.119Z,22.30
2023-07-09T02:06:32.942Z,22.40
2023-07-09T02:08:59.829Z,22.30
2023-07-09T02:11:26.464Z,22.30
2023-07-09T02:13:53.128Z,22.30
2023-07-09T02:16:19.837Z,22.20
2023-07-09T02:18:46.508Z,22.20
2023-07-09T02:21:13.089Z,22.20
2023-07-09T02:23:39.644Z,22.20
2023-07-09T02:26:06.604Z,22.10
2023-07-09T02:28:33.406Z,22.10
2023-07-09T02:31:00.040Z,22.00
2023-07-09T02:33:26.667Z,22.00
2023-07-09T02:35:53.258Z,22.00
2023-07-09T02:38:19.857Z,22.10
2023-07-09T02:40:47.321Z,22.10
2023-07-09T02:43:13.870Z,22.10
2023-07-09T02:45:40.465Z,22.00
2023-07-09T02:48:07.073Z,22.00
2023-07-09T02:50:33.699Z,21.90
2023-07-09T02:53:00.238Z,21.90
2023-07-09T02:55:26.825Z,22.00
2023-07-09T02:57:53.417Z,22.00
2023-07-09T03:00:20.057Z,22.00
2023-07-09T03:02:46.687Z,22.00
2023-07-09T03:05:13.355Z,21.90
2023-07-09T03:07:40.013Z,21.90
2023-07-09T03:10:07.130Z,21.80
2023-07-09T03:12:33.805Z,21.80
2023-07-09T03:15:00.707Z,21.70
2023-07-09T03:17:27.287Z,21.80
2023-07-09T03:19:53.851Z,21.80
2023-07-09T03:22:20.439Z,21.90
2023-07-09T03:24:47.010Z,21.80
2023-07-09T03:27:13.558Z,21.80
2023-07-09T03:29:40.156Z,21.80
2023-07-09T03:32:07.253Z,21.70
2023-07-09T03:34:33.920Z,21.60
2023-07-09T03:37:00.485Z,21.50
2023-07-09T03:39:27.084Z,21.40
2023-07-09T03:41:53.782Z,21.50
2023-07-09T03:44:20.512Z,21.50
2023-07-09T03:46:47.126Z,21.50
2023-07-09T03:49:13.761Z,21.50
2023-07-09T03:51:40.590Z,21.40
2023-07-09T03:54:08.276Z,21.40
2023-07-09T03:56:34.836Z,21.40
2023-07-09T03:59:01.426Z,21.50
2023-07-09T04:01:28.227Z,21.40
2023-07-09T04:03:54.918Z,21.30
2023-07-09T04:06:21.584Z,21.40
2023-07-09T04:08:48.218Z,21.40
2023-07-09T04:11:14.799Z,21.40
2023-07-09T04:13:41.395Z,21.40
2023-07-09T04:16:08.344Z,21.40
2023-07-09T04:18:36.933Z,21.30
2023-07-09T04:21:03.599Z,21.40
2023-07-09T04:23:30.194Z,21.40
2023-07-09T04:25:56.856Z,21.40
2023-07-09T04:28:23.419Z,21.40
2023-07-09T04:30:51.943Z,21.40
2023-07-09T04:33:20.326Z,21.50
2023-07-09T04:35:48.094Z,21.50
2023-07-09T04:38:16.101Z,21.60
2023-07-09T04:40:42.786Z,21.60
2023-07-09T04:43:09.613Z,21.60
2023-07-09T04:45:36.713Z,21.60
2023-07-09T04:48:03.510Z,21.60
2023-07-09T04:50:30.453Z,21.70
2023-07-09T04:52:57.182Z,21.70
2023-07-09T04:55:23.808Z,21.80
2023-07-09T04:57:50.461Z,21.90
2023-07-09T05:00:17.294Z,22.00
2023-07-09T05:02:44.150Z,21.80
2023-07-09T05:05:12.747Z,21.80
2023-07-09T05:07:40.593Z,21.90
2023-07-09T05:10:08.039Z,22.10
2023-07-09T05:12:34.732Z,22.30
2023-07-09T05:15:01.441Z,22.40
2023-07-09T05:17:28.067Z,22.60
2023-07-09T05:19:54.838Z,22.70
2023-07-09T05:22:21.529Z,22.80
2023-07-09T05:24:48.086Z,23.00
2023-07-09T05:27:14.667Z,23.10
2023-07-09T05:29:41.222Z,23.30
2023-07-09T05:32:07.929Z,23.30
2023-07-09T05:34:34.493Z,23.40
2023-07-09T05:37:01.717Z,23.20
2023-07-09T05:39:28.495Z,23.20
2023-07-09T05:41:55.088Z,23.30
2023-07-09T05:44:21.653Z,23.30
2023-07-09T05:46:48.271Z,23.20
2023-07-09T05:49:14.970Z,23.20
2023-07-09T05:51:41.552Z,23.20
2023-07-09T05:54:08.293Z,23.20
2023-07-09T05:56:34.901Z,23.30
2023-07-09T05:59:01.826Z,23.40
2023-07-09T06:01:28.554Z,23.40
2023-07-09T06:03:55.398Z,23.50
2023-07-09T06:06:23.037Z,23.60
2023-07-09T06:08:51.109Z,23.70
2023-07-09T06:11:18.881Z,23.90
2023-07-09T06:13:46.797Z,24.30
2023-07-09T06:16:13.429Z,24.40
2023-07-09T06:18:40.014Z,24.60
2023-07-09T06:21:08.453Z,24.90
2023-07-09T06:23:35.125Z,25.10
2023-07-09T06:26:02.107Z,25.30
2023-07-09T06:28:32.490Z,25.30
2023-07-09T06:30:59.853Z,25.40
2023-07-09T06:33:27.213Z,25.50
2023-07-09T06:36:02.182Z,25.70
2023-07-09T06:38:30.286Z,25.80
2023-07-09T06:40:58.367Z,25.80
2023-07-09T06:43:25.101Z,25.90
2023-07-09T06:46:00.832Z,26.00
2023-07-09T06:48:29.391Z,26.10
2023-07-09T06:50:57.568Z,26.20
2023-07-09T06:53:24.868Z,26.30
2023-07-09T06:55:51.711Z,26.40
2023-07-09T06:58:18.781Z,26.60
2023-07-09T07:00:46.459Z,26.80
2023-07-09T07:03:13.416Z,27.00
2023-07-09T07:05:45.766Z,27.20
2023-07-09T07:08:15.548Z,27.40
2023-07-09T07:10:44.144Z,27.60
2023-07-09T07:13:11.421Z,28.10
2023-07-09T07:15:39.163Z,28.60
2023-07-09T07:18:07.024Z,28.70
2023-07-09T07:20:34.270Z,28.80
2023-07-09T07:23:01.458Z,29.10
2023-07-09T07:25:28.164Z,29.10
2023-07-09T07:27:55.323Z,29.40
2023-07-09T07:30:23.957Z,30.00
2023-07-09T07:32:52.473Z,30.40
2023-07-09T07:35:20.221Z,30.40
2023-07-09T07:37:46.979Z,30.30
2023-07-09T07:40:13.583Z,30.80
2023-07-09T07:42:40.186Z,31.00
2023-07-09T07:45:08.274Z,31.00
2023-07-09T07:47:37.700Z,31.40
2023-07-09T07:50:05.772Z,31.80
2023-07-09T07:52:32.708Z,31.80
2023-07-09T07:54:59.371Z,31.80
2023-07-09T07:57:27.268Z,32.10
2023-07-09T07:59:54.036Z,32.20
2023-07-09T08:02:20.668Z,32.30
2023-07-09T08:04:47.674Z,32.70
2023-07-09T08:07:14.260Z,33.00
2023-07-09T08:09:40.859Z,33.20
2023-07-09T08:12:15.536Z,33.10
2023-07-09T08:14:45.360Z,33.30
2023-07-09T08:17:12.091Z,33.40
2023-07-09T08:19:52.562Z,33.30
2023-07-09T08:22:21.665Z,33.40
2023-07-09T08:24:51.778Z,33.40
2023-07-09T08:27:19.183Z,33.40
2023-07-09T08:29:46.156Z,33.10
2023-07-09T08:32:13.203Z,32.80
2023-07-09T08:34:54.648Z,32.70
2023-07-09T08:37:27.793Z,32.60
2023-07-09T08:39:54.457Z,32.60
2023-07-09T08:42:50.718Z,32.50
2023-07-09T08:45:37.608Z,32.50
2023-07-09T08:48:27.165Z,32.20
2023-07-09T08:51:02.325Z,31.90
2023-07-09T08:53:35.391Z,31.80
2023-07-09T08:56:02.240Z,31.60
2023-07-09T08:58:32.525Z,31.60
2023-07-09T09:01:03.924Z,31.60
2023-07-09T09:03:42.459Z,31.50
2023-07-09T09:06:18.178Z,31.30
2023-07-09T09:09:03.707Z,31.20
2023-07-09T09:11:44.794Z,31.10
2023-07-09T09:14:27.078Z,30.90
2023-07-09T09:16:55.007Z,30.70
2023-07-09T09:19:38.752Z,30.60
2023-07-09T09:22:16.343Z,30.40
2023-07-09T09:24:59.192Z,30.30
2023-07-09T09:27:25.931Z,30.20
2023-07-09T09:29:52.580Z,30.10
2023-07-09T09:32:27.721Z,30.00
2023-07-09T09:34:55.203Z,29.90
2023-07-09T09:37:31.711Z,29.80
2023-07-09T09:40:14.259Z,29.70
2023-07-09T09:42:44.991Z,29.70
2023-07-09T09:45:18.371Z,29.60
2023-07-09T09:47:46.273Z,29.50
2023-07-09T09:50:21.967Z,29.40
2023-07-09T09:52:50.191Z,29.30
2023-07-09T09:55:23.921Z,29.30
2023-07-09T09:57:52.595Z,29.30
2023-07-09T10:00:22.744Z,29.40
2023-07-09T10:02:49.965Z,29.10
2023-07-09T10:05:17.779Z,28.50
2023-07-09T10:08:10.453Z,27.80
2023-07-09T10:10:39.460Z,27.50
2023-07-09T10:13:32.144Z,27.20
2023-07-09T10:16:17.351Z,27.20
2023-07-09T10:18:58.879Z,27.20
2023-07-09T10:21:42.182Z,27.20
2023-07-09T10:24:40.052Z,27.40
2023-07-09T10:27:20.562Z,27.50
2023-07-09T10:30:20.029Z,27.70
2023-07-09T10:32:56.086Z,27.80
2023-07-09T10:35:42.665Z,27.80
2023-07-09T10:38:46.930Z,27.90
2023-07-09T10:41:24.666Z,27.90
2023-07-09T10:44:11.626Z,27.90
2023-07-09T10:46:41.433Z,27.90
2023-07-09T10:49:14.095Z,27.90
2023-07-09T10:51:46.007Z,28.00
2023-07-09T10:54:37.451Z,28.10
2023-07-09T10:57:12.529Z,28.30
2023-07-09T10:59:41.331Z,28.30
2023-07-09T11:02:09.635Z,28.30
2023-07-09T11:04:48.578Z,28.20
2023-07-09T11:07:22.389Z,28.30
2023-07-09T11:09:53.475Z,28.30
2023-07-09T11:12:33.036Z,28.30
2023-07-09T11:15:06.088Z,28.20
2023-07-09T11:17:34.601Z,28.10
2023-07-09T11:20:16.798Z,28.10
2023-07-09T11:22:51.623Z,28.10
2023-07-09T11:25:49.116Z,28.20
2023-07-09T11:28:15.688Z,28.20
2023-07-09T11:30:55.432Z,28.10
2023-07-09T11:33:29.468Z,28.10
2023-07-09T11:36:16.571Z,28.00
2023-07-09T11:38:47.935Z,28.00
2023-07-09T11:41:41.265Z,28.00
2023-07-09T11:44:21.344Z,27.90
2023-07-09T11:46:55.073Z,27.80
2023-07-09T11:49:26.469Z,27.70
2023-07-09T11:51:58.592Z,27.70
2023-07-09T11:54:25.229Z,27.70
2023-07-09T11:56:57.036Z,27.60
2023-07-09T11:59:23.660Z,27.60
2023-07-09T12:01:53.773Z,27.70
2023-07-09T12:04:23.038Z,27.70
2023-07-09T12:06:53.530Z,27.70
2023-07-09T12:09:22.066Z,27.70
2023-07-09T12:11:50.907Z,27.60
2023-07-09T12:14:20.078Z,27.70
2023-07-09T12:16:49.104Z,27.60
2023-07-09T12:19:19.253Z,27.60
2023-07-09T12:21:48.966Z,27.60
2023-07-09T12:24:27.748Z,27.50
2023-07-09T12:26:54.989Z,27.60
2023-07-09T12:29:26.609Z,27.70
2023-07-09T12:31:53.412Z,27.70
2023-07-09T12:34:20.100Z,27.70
2023-07-09T12:36:51.482Z,27.60
2023-07-09T12:39:26.400Z,27.70
2023-07-09T12:41:56.997Z,27.70
2023-07-09T12:44:25.175Z,27.80
2023-07-09T12:46:53.963Z,27.90
2023-07-09T12:49:26.537Z,27.80
2023-07-09T12:51:59.156Z,27.80
2023-07-09T12:54:26.160Z,27.70
2023-07-09T12:56:54.806Z,27.70
2023-07-09T12:59:48.050Z,27.80
2023-07-09T13:02:19.511Z,27.90
2023-07-09T13:04:47.176Z,27.80
2023-07-09T13:07:22.651Z,27.70
2023-07-09T13:09:54.027Z,27.80
2023-07-09T13:12:22.142Z,27.70
2023-07-09T13:14:54.720Z,27.80
2023-07-09T13:17:21.798Z,27.90
2023-07-09T13:19:48.431Z,27.90
2023-07-09T13:22:19.697Z,27.80
2023-07-09T13:24:47.143Z,27.80
2023-07-09T13:27:15.148Z,27.80
2023-07-09T13:29:42.995Z,27.70
2023-07-09T13:32:15.400Z,27.70
2023-07-09T13:34:43.124Z,27.80
2023-07-09T13:37:13.533Z,27.70
2023-07-09T13:39:41.319Z,27.60
2023-07-09T13:42:18.084Z,27.60
2023-07-09T13:44:46.613Z,27.70
2023-07-09T13:47:18.604Z,27.60
2023-07-09T13:49:47.936Z,27.50
2023-07-09T13:52:26.087Z,27.50
2023-07-09T13:54:52.667Z,27.70
2023-07-09T13:57:22.490Z,27.80
2023-07-09T13:59:49.552Z,27.70
2023-07-09T14:02:25.510Z,27.60
2023-07-09T14:04:52.955Z,27.50
2023-07-09T14:07:27.666Z,27.50
2023-07-09T14:09:54.365Z,27.50
2023-07-09T14:12:21.319Z,27.40
2023-07-09T14:14:50.037Z,27.40
2023-07-09T14:17:16.998Z,27.40
2023-07-09T14:19:43.740Z,27.30
2023-07-09T14:22:22.280Z,27.40
2023-07-09T14:24:48.876Z,27.40
2023-07-09T14:27:15.489Z,27.30
2023-07-09T14:29:42.050Z,27.30
2023-07-09T14:32:29.648Z,27.30
2023-07-09T14:34:56.233Z,27.30
2023-07-09T14:37:22.928Z,27.30
2023-07-09T14:39:49.648Z,27.30
2023-07-09T14:42:17.022Z,27.40
2023-07-09T14:44:43.627Z,27.60
2023-07-09T14:47:19.551Z,27.80
2023-07-09T14:49:46.889Z,28.10
2023-07-09T14:52:19.686Z,28.20
2023-07-09T14:54:49.050Z,28.30
2023-07-09T14:57:20.204Z,28.30
2023-07-09T14:59:48.047Z,28.40
2023-07-09T15:02:32.001Z,28.40
2023-07-09T15:04:59.697Z,28.50
2023-07-09T15:07:30.755Z,28.70
2023-07-09T15:09:59.318Z,28.80
2023-07-09T15:12:33.450Z,28.70
2023-07-09T15:15:14.524Z,28.70
2023-07-09T15:17:41.145Z,28.80
2023-07-09T15:20:15.797Z,28.80
2023-07-09T15:22:43.815Z,28.80
2023-07-09T15:25:15.988Z,28.70
2023-07-09T15:27:43.327Z,28.60
2023-07-09T15:30:21.387Z,28.40
2023-07-09T15:32:50.113Z,28.30
2023-07-09T15:35:18.970Z,28.10
2023-07-09T15:37:49.495Z,28.00
2023-07-09T15:40:20.574Z,28.00
2023-07-09T15:42:55.619Z,28.10
2023-07-09T15:45:22.301Z,28.10
2023-07-09T15:47:51.442Z,28.00
2023-07-09T15:50:24.395Z,28.00
2023-07-09T15:52:51.865Z,27.90
2023-07-09T15:55:21.250Z,27.90
2023-07-09T15:57:51.111Z,27.80
2023-07-09T16:00:27.933Z,27.80
2023-07-09T16:03:04.971Z,27.70
2023-07-09T16:05:42.447Z,27.70
2023-07-09T16:08:09.162Z,27.70
2023-07-09T16:10:36.046Z,27.70
2023-07-09T16:13:03.144Z,27.70
2023-07-09T16:15:29.932Z,27.70
2023-07-09T16:17:56.936Z,27.60
2023-07-09T16:20:29.517Z,27.70
2023-07-09T16:22:58.283Z,27.70
2023-07-09T16:25:30.390Z,27.70
2023-07-09T16:27:56.970Z,27.60
2023-07-09T16:30:25.828Z,27.60
2023-07-09T16:32:52.603Z,27.60
2023-07-09T16:35:24.649Z,27.60
2023-07-09T16:37:51.936Z,27.60
2023-07-09T16:40:26.174Z,27.60
2023-07-09T16:42:54.050Z,27.60
2023-07-09T16:45:24.414Z,27.60
2023-07-09T16:47:51.501Z,27.70
2023-07-09T16:50:23.468Z,27.70
2023-07-09T16:52:52.035Z,27.90
2023-07-09T16:55:29.773Z,28.10
2023-07-09T16:57:58.896Z,28.10
2023-07-09T17:00:28.674Z,28.10
2023-07-09T17:02:56.780Z,28.00
2023-07-09T17:05:25.847Z,28.20
2023-07-09T17:07:52.546Z,28.40
2023-07-09T17:10:20.229Z,28.60
2023-07-09T17:12:53.083Z,28.70
2023-07-09T17:15:32.944Z,28.80
2023-07-09T17:18:00.865Z,28.80
2023-07-09T17:20:29.819Z,28.70
2023-07-09T17:22:59.262Z,28.60
2023-07-09T17:25:29.099Z,28.60
2023-07-09T17:27:57.674Z,28.60
2023-07-09T17:30:26.488Z,28.70
2023-07-09T17:32:53.164Z,28.70
2023-07-09T17:35:20.261Z,28.80
2023-07-09T17:37:56.247Z,28.70
2023-07-09T17:43:19.643Z,28.70
2023-07-09T17:45:47.490Z,28.80
2023-07-09T17:48:30.438Z,28.70
2023-07-09T17:50:57.117Z,28.60
2023-07-09T17:53:26.826Z,28.40
2023-07-09T17:55:53.822Z,28.30
2023-07-09T17:58:42.354Z,28.20
2023-07-09T18:01:08.935Z,28.20
2023-07-09T18:03:36.068Z,28.10
2023-07-09T18:06:03.505Z,28.20
2023-07-09T18:08:31.950Z,28.10
2023-07-09T18:10:59.426Z,28.20
2023-07-09T18:13:28.962Z,28.10
2023-07-09T18:15:56.238Z,28.20
2023-07-09T18:18:23.375Z,28.20
2023-07-09T18:20:50.149Z,28.10
2023-07-09T18:23:16.994Z,28.10
2023-07-09T18:25:45.356Z,28.00
2023-07-09T18:28:26.811Z,28.00
2023-07-09T18:31:03.346Z,27.90
2023-07-09T18:33:33.882Z,27.90
2023-07-09T18:36:00.549Z,28.00
2023-07-09T18:38:27.111Z,27.90
2023-07-09T18:40:53.733Z,27.80
2023-07-09T18:45:52.903Z,27.90
2023-07-09T18:48:24.812Z,27.80
2023-07-09T18:50:56.761Z,27.80
2023-07-09T18:53:24.167Z,27.80
2023-07-09T18:55:51.553Z,27.80
2023-07-09T18:58:24.465Z,27.80
2023-07-09T19:00:51.475Z,27.70
2023-07-09T19:03:22.690Z,27.70
2023-07-09T19:05:49.319Z,27.70
2023-07-09T19:08:29.411Z,27.70
2023-07-09T19:10:56.032Z,27.60
2023-07-09T19:13:22.839Z,27.60
2023-07-09T19:15:51.127Z,27.70
2023-07-09T19:18:29.094Z,27.60
2023-07-09T19:20:56.972Z,27.60
2023-07-09T19:23:24.472Z,27.60
2023-07-09T19:25:52.885Z,27.50
2023-07-09T19:28:20.827Z,27.50
2023-07-09T19:30:49.767Z,27.50
2023-07-09T19:33:24.073Z,27.50
2023-07-09T19:35:51.145Z,27.40
2023-07-09T19:38:17.720Z,27.40
2023-07-09T19:40:44.370Z,27.40
2023-07-09T19:43:13.018Z,27.40
2023-07-09T19:45:43.426Z,27.40
2023-07-09T19:48:19.727Z,27.40
2023-07-09T19:50:51.096Z,27.40
2023-07-09T19:53:25.402Z,27.50
2023-07-09T19:55:56.269Z,27.50
2023-07-09T19:58:23.414Z,27.60
2023-07-09T20:00:51.016Z,27.60
2023-07-09T20:03:44.189Z,27.70
2023-07-09T20:06:17.874Z,27.70
2023-07-09T20:08:44.475Z,27.70
2023-07-09T20:11:13.393Z,27.60
2023-07-09T20:13:40.236Z,27.60
2023-07-09T20:16:09.182Z,27.50
2023-07-09T20:18:35.814Z,27.50
2023-07-09T20:21:15.385Z,27.50
2023-07-09T20:23:42.050Z,27.50
2023-07-09T20:26:11.121Z,27.40
2023-07-09T20:28:37.883Z,27.40
2023-07-09T20:31:18.879Z,27.40
2023-07-09T20:33:45.514Z,27.40
2023-07-09T20:36:12.119Z,27.40
2023-07-09T20:38:38.877Z,27.40
2023-07-09T20:41:06.414Z,27.40
2023-07-09T20:43:40.072Z,27.30
2023-07-09T20:46:06.922Z,27.30
2023-07-09T20:48:33.775Z,27.30
2023-07-09T20:51:00.898Z,27.30
2023-07-09T20:53:27.494Z,27.30
2023-07-09T20:55:57.426Z,27.30
2023-07-09T20:58:26.672Z,27.30
2023-07-09T21:00:55.333Z,27.30
2023-07-09T21:03:25.449Z,27.30
2023-07-09T21:05:53.056Z,27.30
2023-07-09T21:08:25.203Z,27.30
2023-07-09T21:10:52.561Z,27.30
2023-07-09T21:13:22.110Z,27.30
2023-07-09T21:15:52.806Z,27.30
2023-07-09T21:18:21.623Z,27.30
2023-07-09T21:20:48.892Z,27.30
2023-07-09T21:23:18.567Z,27.20
2023-07-09T21:25:45.308Z,27.20
2023-07-09T21:28:12.103Z,27.20
2023-07-09T21:30:39.421Z,27.10
2023-07-09T21:33:11.734Z,27.10
2023-07-09T21:35:39.575Z,27.00
2023-07-09T21:38:17.796Z,27.00
2023-07-09T21:40:44.379Z,27.00
2023-07-09T21:43:10.968Z,27.00
2023-07-09T21:45:40.157Z,27.00
2023-07-09T21:48:14.863Z,26.90
2023-07-09T21:50:41.735Z,26.90
2023-07-09T21:53:21.742Z,26.90
2023-07-09T21:55:51.735Z,26.80
2023-07-09T21:58:18.426Z,26.80
2023-07-09T22:00:56.008Z,26.70
2023-07-09T22:03:23.971Z,26.70
2023-07-09T22:05:50.763Z,26.70
2023-07-09T22:08:19.440Z,26.70
2023-07-09T22:10:48.010Z,26.60
2023-07-09T22:13:16.945Z,26.60
2023-07-09T22:15:44.058Z,26.60
2023-07-09T22:18:20.891Z,26.60
2023-07-09T22:20:48.295Z,26.60
2023-07-09T22:23:21.766Z,26.60
2023-07-09T22:25:49.486Z,26.60
2023-07-09T22:28:18.460Z,26.60
2023-07-09T22:30:46.128Z,26.60
2023-07-09T22:33:12.995Z,26.60
2023-07-09T22:35:39.740Z,26.50
2023-07-09T22:38:20.535Z,26.60
2023-07-09T22:40:47.235Z,26.50
2023-07-09T22:43:13.828Z,26.50
2023-07-09T22:45:40.861Z,26.50
2023-07-09T22:48:07.487Z,26.50
2023-07-09T22:50:37.080Z,26.50
2023-07-09T22:53:06.330Z,26.50
2023-07-09T22:55:37.482Z,26.50
2023-07-09T22:58:06.974Z,26.50
2023-07-09T23:00:38.748Z,26.50
2023-07-09T23:03:19.546Z,26.50
2023-07-09T23:05:47.569Z,26.40
2023-07-09T23:08:24.422Z,26.40
2023-07-09T23:10:53.277Z,26.30
2023-07-09T23:13:20.452Z,26.30
2023-07-09T23:15:47.222Z,26.20
2023-07-09T23:18:18.615Z,26.20
2023-07-09T23:20:46.029Z,26.20
2023-07-09T23:23:12.758Z,26.10
2023-07-09T23:25:40.312Z,26.10
2023-07-09T23:28:07.091Z,26.10
2023-07-09T23:30:35.882Z,26.10
2023-07-09T23:33:32.571Z,26.10
2023-07-09T23:36:00.973Z,26.10
2023-07-09T23:38:29.631Z,26.10
2023-07-09T23:40:59.002Z,26.10
2023-07-09T23:43:29.162Z,26.10
2023-07-09T23:45:55.854Z,26.00
2023-07-09T23:48:25.960Z,25.90
2023-07-09T23:50:55.918Z,25.90
2023-07-09T23:53:28.465Z,25.90
2023-07-09T23:55:57.969Z,25.90
2023-07-09T23:58:28.520Z,25.90
